createdAt,value
2018-07-02T00:00:07.326Z,12.49
2018-07-02T00:02:36.528Z,12.47
2018-07-02T00:05:05.305Z,12.43
2018-07-02T00:07:33.830Z,12.40
2018-07-02T00:10:02.443Z,12.38
2018-07-02T00:12:30.993Z,12.32
2018-07-02T00:14:59.441Z,12.28
2018-07-02T00:17:28.640Z,12.22
2018-07-02T00:19:57.160Z,12.19
2018-07-02T00:22:25.829Z,12.18
2018-07-02T00:24:54.987Z,12.16
2018-07-02T00:27:23.534Z,12.16
2018-07-02T00:29:51.997Z,12.15
2018-07-02T00:32:20.956Z,12.13
2018-07-02T00:34:49.846Z,12.09
2018-07-02T00:37:18.289Z,12.11
2018-07-02T00:39:47.069Z,12.09
2018-07-02T00:42:15.901Z,12.07
2018-07-02T00:44:44.657Z,12.06
2018-07-02T00:47:13.133Z,11.31
2018-07-02T00:49:41.952Z,11.97
2018-07-02T00:52:10.513Z,11.95
2018-07-02T00:54:39.227Z,11.94
2018-07-02T00:57:08.191Z,11.93
2018-07-02T00:59:36.813Z,11.92
2018-07-02T01:02:05.621Z,11.91
2018-07-02T01:04:34.337Z,11.88
2018-07-02T01:07:03.417Z,11.86
2018-07-02T01:09:32.335Z,11.83
2018-07-02T01:12:00.887Z,11.82
2018-07-02T01:14:29.642Z,11.81
2018-07-02T01:16:58.117Z,11.78
2018-07-02T01:19:26.571Z,11.76
2018-07-02T01:21:55.013Z,11.73
2018-07-02T01:24:23.448Z,11.72
2018-07-02T01:26:52.234Z,11.68
2018-07-02T01:29:20.701Z,11.67
2018-07-02T01:31:49.486Z,11.64
2018-07-02T01:34:18.605Z,11.62
2018-07-02T01:36:47.125Z,11.61
2018-07-02T01:39:15.677Z,11.60
2018-07-02T01:41:44.368Z,11.59
2018-07-02T01:44:13.031Z,11.57
2018-07-02T01:46:42.310Z,11.56
2018-07-02T01:49:10.772Z,11.55
2018-07-02T01:51:39.705Z,11.51
2018-07-02T01:54:08.189Z,11.51
2018-07-02T01:56:36.653Z,11.48
2018-07-02T01:59:05.425Z,11.45
2018-07-02T02:01:34.415Z,11.45
2018-07-02T02:04:02.887Z,11.47
2018-07-02T02:06:32.033Z,11.47
2018-07-02T02:09:00.692Z,11.46
2018-07-02T02:11:29.170Z,11.47
2018-07-02T02:13:57.842Z,11.44
2018-07-02T02:16:26.674Z,11.44
2018-07-02T02:18:55.228Z,11.42
2018-07-02T02:21:23.917Z,11.39
2018-07-02T02:23:52.422Z,11.39
2018-07-02T02:26:20.893Z,11.39
2018-07-02T02:28:49.669Z,11.41
2018-07-02T02:31:18.240Z,11.42
2018-07-02T02:33:46.734Z,11.44
2018-07-02T02:36:15.414Z,11.47
2018-07-02T02:38:44.096Z,11.49
2018-07-02T02:41:12.945Z,11.50
2018-07-02T02:43:41.573Z,11.52
2018-07-02T02:46:10.082Z,11.52
2018-07-02T02:48:38.877Z,11.54
2018-07-02T02:51:07.542Z,11.58
2018-07-02T02:53:36.505Z,11.60
2018-07-02T02:56:05.069Z,11.60
2018-07-02T02:58:33.682Z,11.61
2018-07-02T03:01:02.238Z,11.62
2018-07-02T03:03:31.573Z,11.62
2018-07-02T03:06:00.142Z,11.65
2018-07-02T03:08:28.820Z,11.68
2018-07-02T03:10:57.325Z,11.69
2018-07-02T03:13:25.982Z,11.69
2018-07-02T03:15:54.709Z,11.69
2018-07-02T03:18:23.505Z,11.70
2018-07-02T03:20:52.530Z,11.69
2018-07-02T03:23:21.253Z,11.70
2018-07-02T03:25:49.747Z,11.73
2018-07-02T03:28:18.210Z,11.73
2018-07-02T03:30:47.025Z,11.77
2018-07-02T03:33:15.485Z,11.79
2018-07-02T03:35:43.950Z,11.81
2018-07-02T03:38:12.750Z,11.85
2018-07-02T03:40:41.185Z,11.88
2018-07-02T03:43:09.668Z,11.91
2018-07-02T03:45:38.354Z,11.94
2018-07-02T03:48:06.809Z,11.98
2018-07-02T03:50:35.453Z,12.01
2018-07-02T03:53:04.337Z,12.05
2018-07-02T03:55:33.048Z,12.09
2018-07-02T03:58:08.429Z,12.12
2018-07-02T04:00:36.877Z,12.16
2018-07-02T04:03:05.429Z,12.18
2018-07-02T04:05:34.754Z,12.21
2018-07-02T04:08:03.509Z,12.25
2018-07-02T04:10:31.958Z,12.30
2018-07-02T04:13:00.684Z,12.34
2018-07-02T04:15:29.104Z,12.40
2018-07-02T04:17:57.901Z,12.42
2018-07-02T04:20:26.800Z,12.47
2018-07-02T04:22:55.255Z,12.52
2018-07-02T04:25:23.869Z,12.56
2018-07-02T04:27:53.233Z,12.61
2018-07-02T04:30:21.708Z,12.65
2018-07-02T04:32:50.169Z,12.71
2018-07-02T04:35:19.284Z,12.76
2018-07-02T04:37:47.961Z,12.83
2018-07-02T04:40:16.431Z,12.90
2018-07-02T04:42:44.992Z,12.94
2018-07-02T04:45:13.545Z,13.00
2018-07-02T04:47:42.690Z,13.05
2018-07-02T04:50:11.777Z,13.10
2018-07-02T04:52:40.761Z,13.16
2018-07-02T04:55:09.625Z,13.21
2018-07-02T04:57:38.753Z,13.28
2018-07-02T05:00:07.505Z,13.11
2018-07-02T05:02:36.465Z,13.42
2018-07-02T05:05:05.806Z,13.47
2018-07-02T05:07:35.039Z,13.51
2018-07-02T05:10:03.597Z,13.59
2018-07-02T05:12:32.457Z,13.68
2018-07-02T05:15:00.912Z,13.73
2018-07-02T05:17:29.367Z,13.79
2018-07-02T05:19:58.201Z,13.87
2018-07-02T05:22:27.048Z,13.94
2018-07-02T05:24:55.529Z,13.97
2018-07-02T05:27:24.425Z,14.04
2018-07-02T05:29:52.847Z,14.10
2018-07-02T05:32:21.271Z,14.16
2018-07-02T05:34:50.267Z,14.22
2018-07-02T05:37:18.693Z,14.28
2018-07-02T05:39:47.353Z,14.32
2018-07-02T05:42:16.061Z,14.38
2018-07-02T05:44:44.496Z,14.44
2018-07-02T05:47:13.109Z,14.51
2018-07-02T05:49:41.804Z,14.58
2018-07-02T05:52:10.446Z,14.65
2018-07-02T05:54:39.454Z,14.71
2018-07-02T05:57:07.926Z,14.79
2018-07-02T05:59:36.684Z,14.87
2018-07-02T06:02:05.229Z,14.95
2018-07-02T06:04:33.681Z,15.02
2018-07-02T06:07:02.557Z,15.09
2018-07-02T06:09:30.993Z,15.16
2018-07-02T06:11:59.497Z,15.23
2018-07-02T06:14:28.606Z,15.36
2018-07-02T06:16:57.174Z,15.47
2018-07-02T06:19:25.649Z,15.52
2018-07-02T06:21:54.619Z,15.60
2018-07-02T06:24:23.220Z,15.69
2018-07-02T06:26:51.702Z,15.83
2018-07-02T06:29:20.457Z,15.94
2018-07-02T06:31:48.905Z,16.03
2018-07-02T06:34:17.557Z,16.16
2018-07-02T06:36:46.205Z,16.26
2018-07-02T06:39:14.654Z,16.35
2018-07-02T06:41:43.128Z,16.49
2018-07-02T06:44:11.981Z,16.63
2018-07-02T06:46:40.457Z,16.76
2018-07-02T06:49:09.193Z,16.89
2018-07-02T06:51:38.033Z,16.99
2018-07-02T06:54:06.842Z,17.09
2018-07-02T06:56:36.168Z,17.23
2018-07-02T06:59:04.641Z,17.29
2018-07-02T07:01:33.640Z,17.40
2018-07-02T07:04:02.545Z,17.50
2018-07-02T07:06:31.053Z,17.62
2018-07-02T07:09:00.028Z,17.69
2018-07-02T07:11:28.604Z,17.74
2018-07-02T07:13:57.045Z,17.76
2018-07-02T07:16:25.485Z,17.86
2018-07-02T07:18:54.437Z,17.91
2018-07-02T07:21:22.877Z,18.01
2018-07-02T07:23:51.325Z,18.22
2018-07-02T07:26:20.026Z,18.42
2018-07-02T07:28:48.794Z,18.56
2018-07-02T07:31:17.534Z,18.65
2018-07-02T07:33:46.042Z,18.80
2018-07-02T07:36:14.826Z,18.94
2018-07-02T07:38:43.947Z,19.20
2018-07-02T07:41:13.119Z,19.41
2018-07-02T07:43:41.601Z,19.89
2018-07-02T07:46:10.261Z,20.52
2018-07-02T07:48:38.754Z,21.23
2018-07-02T07:51:07.223Z,21.87
2018-07-02T07:53:36.369Z,22.48
2018-07-02T07:56:05.525Z,22.86
2018-07-02T07:58:34.942Z,23.21
2018-07-02T08:01:03.658Z,23.48
2018-07-02T08:03:32.991Z,23.81
2018-07-02T08:06:01.485Z,24.10
2018-07-02T08:08:30.000Z,24.33
2018-07-02T08:10:58.945Z,24.54
2018-07-02T08:13:27.839Z,24.83
2018-07-02T08:15:56.297Z,25.01
2018-07-02T08:18:26.170Z,25.04
2018-07-02T08:20:54.614Z,25.18
2018-07-02T08:23:23.066Z,25.10
2018-07-02T08:25:52.328Z,25.14
2018-07-02T08:28:21.145Z,25.33
2018-07-02T08:30:49.590Z,25.59
2018-07-02T08:33:18.474Z,25.88
2018-07-02T08:35:46.923Z,26.02
2018-07-02T08:38:15.383Z,26.27
2018-07-02T08:40:44.277Z,26.44
2018-07-02T08:43:12.729Z,26.66
2018-07-02T08:45:41.191Z,26.91
2018-07-02T08:48:09.774Z,26.98
2018-07-02T08:50:38.205Z,27.01
2018-07-02T08:53:06.838Z,27.01
2018-07-02T08:55:36.061Z,26.90
2018-07-02T08:58:05.048Z,27.14
2018-07-02T09:00:33.628Z,27.31
2018-07-02T09:03:02.795Z,27.55
2018-07-02T09:05:31.438Z,27.87
2018-07-02T09:07:59.864Z,28.06
2018-07-02T09:10:28.366Z,28.34
2018-07-02T09:12:57.021Z,28.44
2018-07-02T09:15:25.992Z,28.39
2018-07-02T09:17:54.810Z,28.44
2018-07-02T09:20:23.261Z,28.54
2018-07-02T09:22:51.706Z,28.64
2018-07-02T09:25:20.694Z,28.61
2018-07-02T09:27:49.137Z,28.52
2018-07-02T09:30:17.667Z,28.44
2018-07-02T09:32:46.300Z,28.46
2018-07-02T09:35:14.742Z,28.44
2018-07-02T09:37:43.243Z,28.36
2018-07-02T09:40:11.797Z,28.12
2018-07-02T09:42:40.313Z,28.03
2018-07-02T09:45:09.031Z,28.10
2018-07-02T09:47:38.497Z,27.99
2018-07-02T09:50:07.077Z,28.10
2018-07-02T09:52:35.717Z,28.31
2018-07-02T09:55:04.813Z,28.53
2018-07-02T09:57:34.217Z,28.68
2018-07-02T10:00:02.954Z,28.87
2018-07-02T10:02:32.182Z,28.79
2018-07-02T10:05:00.635Z,28.35
2018-07-02T10:07:29.108Z,27.92
2018-07-02T10:09:57.777Z,27.75
2018-07-02T10:12:26.221Z,27.57
2018-07-02T10:14:54.683Z,27.79
2018-07-02T10:17:23.350Z,28.17
2018-07-02T10:19:51.807Z,28.42
2018-07-02T10:22:20.249Z,28.73
2018-07-02T10:24:49.041Z,28.99
2018-07-02T10:27:17.513Z,29.26
2018-07-02T10:29:45.981Z,29.13
2018-07-02T10:32:15.118Z,29.33
2018-07-02T10:34:43.668Z,29.61
2018-07-02T10:37:12.106Z,29.62
2018-07-02T10:39:41.259Z,29.67
2018-07-02T10:42:09.717Z,29.78
2018-07-02T10:44:38.399Z,29.71
2018-07-02T10:47:06.920Z,29.55
2018-07-02T10:49:35.426Z,29.70
2018-07-02T10:52:03.918Z,29.81
2018-07-02T10:54:32.569Z,29.86
2018-07-02T10:57:01.033Z,29.88
2018-07-02T10:59:29.487Z,29.93
2018-07-02T11:01:58.649Z,29.90
2018-07-02T11:04:27.249Z,29.92
2018-07-02T11:06:55.717Z,29.80
2018-07-02T11:09:24.544Z,29.66
2018-07-02T11:11:53.182Z,29.61
2018-07-02T11:14:27.964Z,29.79
2018-07-02T11:16:56.845Z,29.64
2018-07-02T11:19:25.301Z,29.60
2018-07-02T11:21:53.953Z,29.55
2018-07-02T11:24:22.386Z,29.48
2018-07-02T11:26:50.818Z,29.55
2018-07-02T11:29:19.377Z,29.63
2018-07-02T11:31:48.064Z,29.76
2018-07-02T11:34:16.912Z,29.68
2018-07-02T11:36:52.360Z,29.30
2018-07-02T11:39:20.797Z,28.97
2018-07-02T11:41:49.225Z,28.82
2018-07-02T11:44:19.053Z,28.35
2018-07-02T11:46:47.540Z,28.01
2018-07-02T11:49:16.285Z,27.59
2018-07-02T11:51:45.704Z,27.15
2018-07-02T11:54:14.697Z,26.83
2018-07-02T11:56:43.137Z,26.57
2018-07-02T11:59:11.773Z,26.52
2018-07-02T12:01:40.209Z,26.42
2018-07-02T12:04:08.748Z,26.25
2018-07-02T12:06:37.732Z,25.86
2018-07-02T12:09:08.517Z,25.36
2018-07-02T12:11:36.989Z,25.00
2018-07-02T12:14:05.573Z,24.64
2018-07-02T12:16:34.062Z,24.25
2018-07-02T12:19:02.603Z,24.16
2018-07-02T12:21:31.556Z,23.67
2018-07-02T12:24:00.013Z,23.30
2018-07-02T12:26:28.486Z,23.08
2018-07-02T12:28:57.063Z,22.90
2018-07-02T12:31:25.533Z,22.68
2018-07-02T12:33:53.976Z,22.61
2018-07-02T12:36:23.267Z,22.49
2018-07-02T12:38:51.777Z,22.36
2018-07-02T12:41:20.406Z,22.11
2018-07-02T12:43:49.312Z,21.94
2018-07-02T12:46:17.757Z,21.81
2018-07-02T12:48:46.187Z,21.74
2018-07-02T12:51:14.630Z,21.64
2018-07-02T12:53:43.091Z,21.58
2018-07-02T12:56:11.623Z,21.47
2018-07-02T12:58:40.368Z,21.42
2018-07-02T13:01:08.888Z,21.38
2018-07-02T13:03:37.319Z,21.38
2018-07-02T13:06:06.709Z,21.48
2018-07-02T13:08:35.855Z,21.51
2018-07-02T13:11:04.372Z,21.55
2018-07-02T13:13:33.715Z,21.64
2018-07-02T13:16:02.124Z,21.69
2018-07-02T13:18:30.606Z,21.62
2018-07-02T13:20:59.099Z,21.54
2018-07-02T13:23:27.561Z,21.48
2018-07-02T13:25:55.989Z,21.38
2018-07-02T13:28:25.085Z,21.32
2018-07-02T13:30:53.561Z,21.28
2018-07-02T13:33:22.043Z,21.15
2018-07-02T13:35:52.341Z,21.03
2018-07-02T13:38:21.257Z,20.97
2018-07-02T13:40:49.708Z,20.98
2018-07-02T13:43:18.864Z,20.95
2018-07-02T13:45:47.757Z,20.81
2018-07-02T13:48:17.246Z,20.67
2018-07-02T13:50:45.729Z,20.50
2018-07-02T13:53:14.177Z,20.32
2018-07-02T13:55:42.645Z,20.12
2018-07-02T13:58:11.265Z,19.89
2018-07-02T14:00:39.689Z,19.76
2018-07-02T14:03:08.175Z,19.72
2018-07-02T14:05:37.022Z,19.66
2018-07-02T14:08:05.985Z,19.54
2018-07-02T14:10:34.962Z,19.49
2018-07-02T14:13:03.432Z,19.40
2018-07-02T14:15:32.041Z,19.29
2018-07-02T14:18:00.498Z,19.19
2018-07-02T14:20:29.247Z,19.09
2018-07-02T14:22:57.693Z,19.01
2018-07-02T14:25:26.237Z,18.97
2018-07-02T14:27:54.781Z,18.88
2018-07-02T14:30:23.224Z,18.92
2018-07-02T14:32:51.752Z,18.97
2018-07-02T14:35:20.330Z,18.99
2018-07-02T14:37:48.926Z,19.02
2018-07-02T14:40:18.081Z,18.99
2018-07-02T14:42:47.082Z,19.00
2018-07-02T14:45:15.803Z,19.01
2018-07-02T14:47:44.031Z,19.03
2018-07-02T14:50:12.839Z,19.05
2018-07-02T14:52:41.275Z,19.10
2018-07-02T14:55:09.733Z,19.17
2018-07-02T14:57:38.662Z,19.05
2018-07-02T15:00:07.309Z,19.29
2018-07-02T15:02:35.817Z,19.14
2018-07-02T15:05:04.657Z,19.34
2018-07-02T15:07:33.099Z,19.37
2018-07-02T15:10:01.606Z,19.37
2018-07-02T15:12:30.388Z,19.40
2018-07-02T15:14:59.081Z,19.43
2018-07-02T15:17:27.653Z,19.44
2018-07-02T15:19:56.916Z,19.49
2018-07-02T15:22:25.508Z,19.49
2018-07-02T15:24:53.995Z,19.44
2018-07-02T15:27:23.209Z,19.48
2018-07-02T15:29:51.664Z,19.41
2018-07-02T15:32:20.369Z,19.33
2018-07-02T15:34:48.897Z,19.23
2018-07-02T15:37:17.351Z,19.11
2018-07-02T15:39:46.087Z,19.05
2018-07-02T15:42:14.614Z,18.99
2018-07-02T15:44:43.057Z,18.95
2018-07-02T15:47:11.590Z,18.97
2018-07-02T15:49:40.099Z,19.00
2018-07-02T15:52:09.028Z,19.05
2018-07-02T15:54:37.483Z,19.10
2018-07-02T15:57:06.925Z,19.08
2018-07-02T15:59:35.381Z,19.08
2018-07-02T16:02:04.062Z,19.11
2018-07-02T16:04:32.569Z,19.15
2018-07-02T16:07:01.130Z,19.09
2018-07-02T16:09:36.681Z,19.04
2018-07-02T16:12:05.231Z,19.02
2018-07-02T16:14:33.993Z,19.04
2018-07-02T16:17:02.717Z,18.98
2018-07-02T16:19:31.165Z,18.97
2018-07-02T16:21:59.701Z,19.01
2018-07-02T16:24:28.417Z,19.06
2018-07-02T16:26:56.925Z,19.13
2018-07-02T16:29:25.815Z,19.15
2018-07-02T16:31:54.610Z,19.19
2018-07-02T16:34:23.172Z,19.16
2018-07-02T16:36:51.706Z,19.02
2018-07-02T16:39:20.597Z,18.90
2018-07-02T16:41:49.047Z,18.79
2018-07-02T16:44:17.975Z,18.74
2018-07-02T16:46:47.049Z,18.68
2018-07-02T16:49:15.510Z,18.60
2018-07-02T16:51:44.160Z,18.55
2018-07-02T16:54:13.125Z,18.49
2018-07-02T16:56:41.612Z,18.40
2018-07-02T16:59:10.096Z,18.36
2018-07-02T17:01:39.166Z,18.33
2018-07-02T17:04:08.054Z,18.32
2018-07-02T17:06:36.611Z,18.27
2018-07-02T17:09:09.369Z,18.24
2018-07-02T17:11:38.506Z,18.20
2018-07-02T17:14:07.079Z,18.20
2018-07-02T17:16:36.098Z,18.17
2018-07-02T17:19:05.195Z,18.10
2018-07-02T17:21:33.750Z,18.05
2018-07-02T17:24:02.408Z,18.02
2018-07-02T17:26:30.949Z,18.01
2018-07-02T17:28:59.887Z,17.95
2018-07-02T17:31:28.478Z,17.91
2018-07-02T17:33:57.039Z,17.92
2018-07-02T17:36:25.507Z,17.91
2018-07-02T17:38:54.057Z,17.95
2018-07-02T17:41:22.597Z,17.97
2018-07-02T17:43:51.094Z,17.96
2018-07-02T17:46:19.724Z,17.93
2018-07-02T17:48:48.256Z,17.93
2018-07-02T17:51:16.717Z,17.93
2018-07-02T17:53:45.189Z,17.93
2018-07-02T17:56:14.306Z,17.93
2018-07-02T17:58:42.737Z,17.93
2018-07-02T18:01:12.404Z,17.92
2018-07-02T18:03:43.213Z,17.93
2018-07-02T18:06:11.662Z,17.90
2018-07-02T18:08:40.269Z,17.84
2018-07-02T18:11:08.905Z,17.83
2018-07-02T18:13:37.393Z,15.71
2018-07-02T18:16:06.113Z,17.82
2018-07-02T18:18:34.754Z,17.75
2018-07-02T18:21:03.658Z,17.70
2018-07-02T18:23:32.289Z,17.74
2018-07-02T18:26:01.247Z,17.76
2018-07-02T18:28:29.717Z,17.72
2018-07-02T18:30:58.349Z,17.69
2018-07-02T18:33:26.826Z,17.65
2018-07-02T18:35:55.383Z,17.61
2018-07-02T18:38:23.997Z,17.57
2018-07-02T18:40:52.433Z,17.54
2018-07-02T18:43:20.932Z,17.52
2018-07-02T18:45:49.544Z,17.52
2018-07-02T18:48:18.237Z,17.51
2018-07-02T18:50:46.674Z,17.52
2018-07-02T18:53:15.153Z,17.53
2018-07-02T18:55:43.700Z,17.50
2018-07-02T18:58:12.162Z,17.50
2018-07-02T19:00:40.730Z,17.52
2018-07-02T19:03:09.339Z,14.82
2018-07-02T19:05:37.935Z,17.51
2018-07-02T19:08:06.603Z,17.50
2018-07-02T19:10:36.124Z,17.51
2018-07-02T19:13:07.350Z,17.50
2018-07-02T19:15:35.804Z,17.48
2018-07-02T19:18:05.160Z,17.47
2018-07-02T19:20:34.189Z,17.46
2018-07-02T19:23:02.638Z,17.45
2018-07-02T19:25:31.216Z,17.45
2018-07-02T19:28:00.393Z,17.45
2018-07-02T19:30:28.911Z,17.44
2018-07-02T19:32:57.431Z,17.43
2018-07-02T19:35:26.119Z,17.41
2018-07-02T19:37:54.585Z,17.40
2018-07-02T19:40:23.059Z,17.41
2018-07-02T19:42:52.026Z,17.39
2018-07-02T19:45:20.605Z,17.38
2018-07-02T19:47:49.142Z,17.39
2018-07-02T19:50:17.924Z,17.38
2018-07-02T19:52:46.357Z,17.36
2018-07-02T19:55:14.899Z,17.34
2018-07-02T19:57:43.852Z,17.32
2018-07-02T20:00:12.347Z,17.30
2018-07-02T20:02:40.861Z,17.29
2018-07-02T20:05:09.831Z,17.28
2018-07-02T20:07:38.314Z,17.28
2018-07-02T20:10:07.009Z,17.28
2018-07-02T20:12:35.930Z,17.25
2018-07-02T20:15:04.458Z,17.26
2018-07-02T20:17:32.914Z,17.27
2018-07-02T20:20:01.995Z,17.25
2018-07-02T20:22:30.660Z,17.23
2018-07-02T20:24:59.205Z,17.24
2018-07-02T20:27:28.076Z,17.24
2018-07-02T20:29:56.518Z,17.25
2018-07-02T20:32:24.979Z,17.25
2018-07-02T20:34:54.108Z,17.25
2018-07-02T20:37:22.645Z,17.23
2018-07-02T20:39:51.093Z,17.22
2018-07-02T20:42:19.741Z,17.20
2018-07-02T20:44:48.274Z,17.20
2018-07-02T20:47:17.049Z,17.21
2018-07-02T20:49:46.246Z,17.22
2018-07-02T20:52:15.096Z,17.21
2018-07-02T20:54:43.590Z,17.23
2018-07-02T20:57:12.861Z,17.22
2018-07-02T20:59:41.291Z,17.20
2018-07-02T21:02:09.808Z,17.22
2018-07-02T21:04:38.828Z,17.20
2018-07-02T21:07:07.349Z,17.20
2018-07-02T21:09:35.793Z,17.19
2018-07-02T21:12:04.966Z,17.19
2018-07-02T21:14:34.606Z,17.17
2018-07-02T21:17:03.531Z,17.17
2018-07-02T21:19:32.222Z,17.10
2018-07-02T21:22:00.842Z,17.08
2018-07-02T21:24:30.223Z,17.09
2018-07-02T21:26:59.145Z,17.11
2018-07-02T21:29:28.009Z,17.12
2018-07-02T21:31:56.802Z,17.14
2018-07-02T21:34:26.115Z,17.14
2018-07-02T21:36:55.539Z,17.00
2018-07-02T21:39:25.031Z,17.15
2018-07-02T21:41:55.269Z,17.14
2018-07-02T21:44:23.723Z,17.15
2018-07-02T21:46:53.189Z,17.14
2018-07-02T21:49:22.221Z,17.12
2018-07-02T21:51:50.682Z,17.09
2018-07-02T21:54:19.221Z,17.06
2018-07-02T21:56:47.984Z,17.00
2018-07-02T21:59:16.439Z,16.95
2018-07-02T22:01:44.912Z,16.90
2018-07-02T22:04:13.719Z,16.84
2018-07-02T22:06:42.256Z,16.82
2018-07-02T22:09:11.701Z,16.78
2018-07-02T22:11:40.492Z,16.77
2018-07-02T22:14:08.990Z,16.74
2018-07-02T22:16:37.893Z,16.73
2018-07-02T22:19:07.129Z,16.71
2018-07-02T22:21:35.581Z,16.68
2018-07-02T22:24:04.096Z,16.65
2018-07-02T22:26:33.913Z,16.62
2018-07-02T22:29:02.365Z,16.56
2018-07-02T22:31:30.862Z,16.51
2018-07-02T22:33:59.513Z,16.45
2018-07-02T22:36:28.142Z,16.43
2018-07-02T22:39:03.364Z,16.41
2018-07-02T22:41:32.073Z,16.40
2018-07-02T22:44:00.493Z,16.36
2018-07-02T22:46:28.965Z,16.35
2018-07-02T22:48:57.453Z,16.32
2018-07-02T22:51:25.885Z,16.29
2018-07-02T22:53:54.458Z,16.27
2018-07-02T22:56:22.989Z,16.25
2018-07-02T22:58:51.627Z,16.22
2018-07-02T23:01:20.570Z,16.22
2018-07-02T23:03:49.089Z,16.20
2018-07-02T23:06:17.525Z,16.21
2018-07-02T23:08:46.291Z,16.23
2018-07-02T23:11:15.092Z,16.23
2018-07-02T23:13:43.589Z,16.19
2018-07-02T23:16:12.672Z,16.17
2018-07-02T23:18:41.478Z,16.16
2018-07-02T23:21:09.905Z,16.14
2018-07-02T23:23:38.789Z,16.16
2018-07-02T23:26:07.382Z,16.14
2018-07-02T23:28:36.505Z,16.11
2018-07-02T23:31:05.409Z,16.09
2018-07-02T23:33:33.934Z,16.10
2018-07-02T23:36:02.567Z,16.11
2018-07-02T23:38:31.458Z,16.07
2018-07-02T23:41:00.295Z,16.07
2018-07-02T23:43:28.805Z,16.06
2018-07-02T23:45:57.503Z,16.04
2018-07-02T23:48:26.270Z,16.00
2018-07-02T23:50:54.716Z,15.97
2018-07-02T23:53:23.587Z,15.94
2018-07-02T23:55:52.357Z,15.90
2018-07-02T23:58:21.222Z,15.86
